M I D A S
Marine Information and Data Acquisition System
Tripno 903 of the Zeeleeuw from 2005-05-24 06:47:01 to 2005-05-24 14:47:27
Back to CruiseResearch ActivitiesStationsMapUnderway DataData graphs

EquipmentUnitsComment
TimeDGPSUTC
LatitudeDGPSDM.mWGS84
LongitudeDGPSDM.mWGS84
HeadingGyrodeg 
SOGDGPSknotsSpeed over ground
COGDGPSdegCourse over ground
DepthEcho soundermeters200 kHz
Missing or incorrect values are displayed as -999
Navigation data collected by the RV Zeeleeuw from 2005-05-24 05:41:57 to 2005-05-24 14:51:47
                                                                                    Next 1000 lines
Time Latitude Longitude Heading SOG COG Depth
2005-05-24 05:42:07 51°13.608 2°56.108 125.9 0.3 4 -999
2005-05-24 05:42:12 51°13.597 2°56.107 125.9 0.1 6 -999
2005-05-24 05:42:17 51°13.597 2°56.107 125.9 -999 273 -999
2005-05-24 05:42:22 51°13.596 2°56.108 125.9 -999 351 -999
2005-05-24 05:42:27 51°13.597 2°56.108 125.9 -999 346 -999
2005-05-24 05:42:32 51°13.597 2°56.108 125.9 -999 110 -999
2005-05-24 05:42:37 51°13.597 2°56.108 125.9 -999 219 -999
2005-05-24 05:42:42 51°13.597 2°56.108 125.9 -999 306 -999
2005-05-24 05:42:47 51°13.597 2°56.108 125.9 -999 305 -999
2005-05-24 05:42:52 51°13.597 2°56.108 125.9 -999 100 -999
2005-05-24 05:42:57 51°13.597 2°56.108 125.9 -999 292 -999
2005-05-24 05:43:02 51°13.597 2°56.109 125.9 -999 91 -999
2005-05-24 05:43:07 51°13.598 2°56.109 125.9 -999 125 -999
2005-05-24 05:43:12 51°13.598 2°56.109 125.8 -999 328 -999
2005-05-24 05:43:17 51°13.598 2°56.109 125.8 -999 315 -999
2005-05-24 05:43:22 51°13.598 2°56.109 125.8 -999 340 -999
2005-05-24 05:43:27 51°13.598 2°56.109 125.7 -999 12 -999
2005-05-24 05:43:32 51°13.598 2°56.109 125.7 -999 358 -999
2005-05-24 05:43:37 51°13.598 2°56.109 125.7 -999 3 -999
2005-05-24 05:43:42 51°13.597 2°56.109 125.6 -999 64 -999
2005-05-24 05:43:47 51°13.597 2°56.109 125.6 -999 168 -999
2005-05-24 05:43:52 51°13.597 2°56.109 125.6 -999 168 -999
2005-05-24 05:43:57 51°13.597 2°56.11 125.6 -999 355 -999
2005-05-24 05:44:02 51°13.597 2°56.109 125.6 -999 106 -999
2005-05-24 05:44:07 51°13.597 2°56.109 125.6 -999 106 -999
2005-05-24 05:44:12 51°13.597 2°56.109 125.6 -999 10 -999
2005-05-24 05:44:17 51°13.597 2°56.109 125.6 0.1 324 -999
2005-05-24 05:44:22 51°13.597 2°56.109 125.5 -999 -999 -999
2005-05-24 05:44:27 51°13.597 2°56.109 125.5 -999 72 -999
2005-05-24 05:44:32 51°13.597 2°56.109 125.5 -999 13 -999
2005-05-24 05:44:37 51°13.597 2°56.109 125.5 -999 327 -999
2005-05-24 05:44:42 51°13.597 2°56.109 125.5 -999 357 -999
2005-05-24 05:44:47 51°13.597 2°56.109 125.5 -999 44 -999
2005-05-24 05:44:52 51°13.597 2°56.109 125.5 -999 113 -999
2005-05-24 05:44:57 51°13.597 2°56.109 125.5 -999 107 -999
2005-05-24 05:45:02 51°13.597 2°56.109 125.6 -999 336 -999
2005-05-24 05:45:07 51°13.597 2°56.109 125.6 -999 50 -999
2005-05-24 05:45:12 51°13.597 2°56.109 125.6 -999 126 -999
2005-05-24 05:45:17 51°13.597 2°56.109 125.6 -999 305 -999
2005-05-24 05:45:22 51°13.597 2°56.109 125.6 -999 349 -999
2005-05-24 05:45:26 51°13.597 2°56.109 125.6 -999 183 -999
2005-05-24 05:45:32 51°13.597 2°56.109 125.6 -999 311 -999
2005-05-24 05:45:37 51°13.597 2°56.109 125.6 -999 311 -999
2005-05-24 05:45:42 51°13.597 2°56.109 125.5 0.1 356 -999
2005-05-24 05:45:47 51°13.597 2°56.109 125.5 -999 85 -999
2005-05-24 05:45:52 51°13.597 2°56.109 125.4 -999 86 -999
2005-05-24 05:45:57 51°13.597 2°56.109 125.2 -999 139 -999
2005-05-24 05:46:02 51°13.597 2°56.109 125.1 -999 268 -999
2005-05-24 05:46:07 51°13.597 2°56.109 125 -999 71 -999
2005-05-24 05:46:12 51°13.597 2°56.109 124.9 -999 115 -999
2005-05-24 05:46:17 51°13.597 2°56.109 124.9 -999 91 -999
2005-05-24 05:46:22 51°13.597 2°56.109 124.9 -999 97 -999
2005-05-24 05:46:27 51°13.597 2°56.109 124.8 -999 110 -999
2005-05-24 05:46:32 51°13.597 2°56.109 124.8 -999 121 -999
2005-05-24 05:46:37 51°13.597 2°56.109 124.8 -999 121 -999
2005-05-24 05:46:42 51°13.597 2°56.108 124.8 -999 262 -999
2005-05-24 05:46:47 51°13.597 2°56.108 124.8 -999 301 -999
2005-05-24 05:46:52 51°13.597 2°56.108 124.8 -999 301 -999
2005-05-24 05:46:57 51°13.597 2°56.108 124.8 -999 19 -999
2005-05-24 05:47:02 51°13.597 2°56.109 124.8 -999 106 -999
2005-05-24 05:47:07 51°13.597 2°56.108 124.9 -999 291 -999
2005-05-24 05:47:12 51°13.597 2°56.108 124.9 -999 320 -999
2005-05-24 05:47:17 51°13.597 2°56.108 124.9 -999 100 -999
2005-05-24 05:47:22 51°13.597 2°56.108 124.9 -999 90 -999
2005-05-24 05:47:26 51°13.597 2°56.108 124.9 -999 78 -999
2005-05-24 05:47:32 51°13.597 2°56.108 124.9 -999 48 -999
2005-05-24 05:47:37 51°13.597 2°56.108 124.9 -999 253 -999
2005-05-24 05:47:42 51°13.597 2°56.108 124.9 -999 13 -999
2005-05-24 05:47:47 51°13.597 2°56.108 124.9 -999 308 -999
2005-05-24 05:47:52 51°13.597 2°56.108 124.9 -999 286 -999
2005-05-24 05:47:57 51°13.597 2°56.108 124.9 -999 294 -999
2005-05-24 05:48:02 51°13.597 2°56.108 125 -999 3 -999
2005-05-24 05:48:07 51°13.597 2°56.108 125 -999 118 -999
2005-05-24 05:48:12 51°13.597 2°56.108 125 -999 139 -999
2005-05-24 05:48:17 51°13.597 2°56.108 125.2 -999 107 -999
2005-05-24 05:48:22 51°13.597 2°56.108 125.3 -999 106 -999
2005-05-24 05:48:27 51°13.597 2°56.108 125.4 -999 42 -999
2005-05-24 05:48:32 51°13.597 2°56.108 125.5 -999 341 -999
2005-05-24 05:48:37 51°13.597 2°56.108 125.5 -999 341 -999
2005-05-24 05:48:42 51°13.597 2°56.108 125.5 -999 122 -999
2005-05-24 05:48:47 51°13.597 2°56.108 125.5 -999 119 -999
2005-05-24 05:48:52 51°13.597 2°56.108 125.5 -999 140 -999
2005-05-24 05:48:57 51°13.597 2°56.108 125.5 -999 131 -999
2005-05-24 05:49:02 51°13.597 2°56.108 125.5 -999 339 -999
2005-05-24 05:49:06 51°13.597 2°56.108 125.5 -999 11 -999
2005-05-24 05:49:12 51°13.597 2°56.108 125.7 -999 257 -999
2005-05-24 05:49:17 51°13.597 2°56.108 125.7 -999 257 -999
2005-05-24 05:49:22 51°13.597 2°56.108 125.9 -999 120 -999
2005-05-24 05:49:27 51°13.597 2°56.108 126 -999 113 -999
2005-05-24 05:49:32 51°13.597 2°56.108 126.1 -999 151 -999
2005-05-24 05:49:37 51°13.597 2°56.108 126.1 -999 31 -999
2005-05-24 05:49:42 51°13.597 2°56.108 126.1 -999 119 -999
2005-05-24 05:49:47 51°13.597 2°56.109 126.1 -999 125 -999
2005-05-24 05:49:52 51°13.597 2°56.109 126.1 -999 302 -999
2005-05-24 05:49:57 51°13.597 2°56.109 126 -999 319 -999
2005-05-24 05:50:02 51°13.597 2°56.109 126 -999 236 -999
2005-05-24 05:50:07 51°13.597 2°56.109 125.9 -999 318 -999
2005-05-24 05:50:12 51°13.597 2°56.109 125.9 -999 164 -999
2005-05-24 05:50:17 51°13.597 2°56.109 125.9 -999 164 -999
2005-05-24 05:50:22 51°13.597 2°56.109 125.9 -999 175 -999
2005-05-24 05:50:27 51°13.597 2°56.109 125.9 -999 91 -999
2005-05-24 05:50:32 51°13.597 2°56.109 125.9 -999 148 -999
2005-05-24 05:50:37 51°13.597 2°56.109 125.9 -999 323 -999
2005-05-24 05:50:42 51°13.597 2°56.109 125.8 0.1 310 -999
2005-05-24 05:50:47 51°13.597 2°56.109 125.7 -999 17 -999
2005-05-24 05:50:52 51°13.597 2°56.109 125.5 -999 110 -999
2005-05-24 05:50:57 51°13.597 2°56.109 125.2 0.1 47 -999
2005-05-24 05:51:02 51°13.597 2°56.109 124.9 -999 219 -999
2005-05-24 05:51:07 51°13.597 2°56.109 124.8 -999 39 -999
2005-05-24 05:51:12 51°13.597 2°56.109 124.8 -999 156 -999
2005-05-24 05:51:17 51°13.597 2°56.109 124.8 -999 81 -999
2005-05-24 05:51:22 51°13.597 2°56.109 124.8 -999 237 -999
2005-05-24 05:51:27 51°13.597 2°56.109 124.8 -999 38 -999
2005-05-24 05:51:32 51°13.597 2°56.109 124.9 -999 242 -999
2005-05-24 05:51:37 51°13.597 2°56.109 125 -999 242 -999
2005-05-24 05:51:42 51°13.597 2°56.108 125 0.1 295 -999
2005-05-24 05:51:47 51°13.597 2°56.108 125.1 0.1 332 -999
2005-05-24 05:51:52 51°13.597 2°56.109 125.2 -999 117 -999
2005-05-24 05:51:57 51°13.597 2°56.108 125.2 -999 48 -999
2005-05-24 05:52:02 51°13.597 2°56.108 125.3 -999 124 -999
2005-05-24 05:52:07 51°13.597 2°56.108 125.3 -999 61 -999
2005-05-24 05:52:12 51°13.597 2°56.108 125.3 -999 175 -999
2005-05-24 05:52:17 51°13.597 2°56.108 125.2 -999 11 -999
2005-05-24 05:52:22 51°13.597 2°56.108 125.2 -999 317 -999
2005-05-24 05:52:26 51°13.597 2°56.108 125.1 -999 331 -999
2005-05-24 05:52:32 51°13.597 2°56.109 125.1 -999 289 -999
2005-05-24 05:52:37 51°13.597 2°56.108 125 -999 289 -999
2005-05-24 05:52:42 51°13.597 2°56.108 125 -999 335 -999
2005-05-24 05:52:47 51°13.597 2°56.108 125 -999 323 -999
2005-05-24 05:52:52 51°13.597 2°56.109 125 -999 88 -999
2005-05-24 05:52:57 51°13.597 2°56.109 125 -999 107 -999
2005-05-24 05:53:02 51°13.597 2°56.109 125 0.1 95 -999
2005-05-24 05:53:07 51°13.597 2°56.109 125 -999 142 -999
2005-05-24 05:53:12 51°13.597 2°56.109 125 -999 301 -999
2005-05-24 05:53:17 51°13.597 2°56.108 125.1 0.1 304 -999
2005-05-24 05:53:22 51°13.598 2°56.108 125.3 0.1 327 -999
2005-05-24 05:53:27 51°13.598 2°56.108 125.4 0.1 323 -999
2005-05-24 05:53:32 51°13.598 2°56.109 125.4 -999 2 -999
2005-05-24 05:53:37 51°13.598 2°56.109 125.4 -999 107 -999
2005-05-24 05:53:42 51°13.598 2°56.109 125.4 -999 104 -999
2005-05-24 05:53:46 51°13.598 2°56.109 125.4 0.1 355 -999
2005-05-24 05:53:52 51°13.598 2°56.108 125.4 0.1 355 -999
2005-05-24 05:53:57 51°13.598 2°56.108 125.3 0.1 355 -999
2005-05-24 05:54:02 51°13.598 2°56.108 125.3 0.1 316 -999
2005-05-24 05:54:06 51°13.598 2°56.108 125.2 -999 321 -999
2005-05-24 05:54:12 51°13.598 2°56.109 125 0.1 103 -999
2005-05-24 05:54:17 51°13.598 2°56.109 125 0.1 130 -999
2005-05-24 05:54:22 51°13.598 2°56.109 125 0.1 149 -999
2005-05-24 05:54:26 51°13.598 2°56.109 125 0.1 318 -999
2005-05-24 05:54:32 51°13.598 2°56.108 125.2 0.1 325 -999
2005-05-24 05:54:37 51°13.598 2°56.108 125.3 0.1 314 -999
2005-05-24 05:54:42 51°13.598 2°56.108 125.3 -999 53 -999
2005-05-24 05:54:46 51°13.598 2°56.109 125.3 -999 72 -999
2005-05-24 05:54:52 51°13.598 2°56.109 125.2 -999 131 -999
2005-05-24 05:54:57 51°13.598 2°56.109 125.2 -999 138 -999
2005-05-24 05:55:01 51°13.598 2°56.109 125.1 -999 32 -999
2005-05-24 05:55:06 51°13.598 2°56.109 125 -999 108 -999
2005-05-24 05:55:12 51°13.598 2°56.109 124.9 -999 108 -999
2005-05-24 05:55:17 51°13.598 2°56.109 124.9 -999 100 -999
2005-05-24 05:55:21 51°13.598 2°56.108 124.8 -999 223 -999
2005-05-24 05:55:26 51°13.598 2°56.108 124.8 -999 298 -999
2005-05-24 05:55:32 51°13.598 2°56.108 124.8 0.1 296 -999
2005-05-24 05:55:37 51°13.598 2°56.108 124.9 0.1 333 -999
2005-05-24 05:55:42 51°13.598 2°56.108 124.9 -999 184 -999
2005-05-24 05:55:47 51°13.598 2°56.108 124.9 0.1 78 -999
2005-05-24 05:55:52 51°13.598 2°56.108 124.9 0.1 142 -999
2005-05-24 05:55:57 51°13.598 2°56.108 125.2 0.1 115 -999
2005-05-24 05:56:02 51°13.598 2°56.108 125.3 -999 313 -999
2005-05-24 05:56:07 51°13.598 2°56.108 125.4 -999 324 -999
2005-05-24 05:56:12 51°13.598 2°56.108 125.5 0.1 320 -999
2005-05-24 05:56:17 51°13.598 2°56.108 125.5 0.1 320 -999
2005-05-24 05:56:22 51°13.598 2°56.108 125.5 -999 299 -999
2005-05-24 05:56:27 51°13.598 2°56.108 125.5 0.1 103 -999
2005-05-24 05:56:32 51°13.598 2°56.108 125.5 0.1 135 -999
2005-05-24 05:56:37 51°13.598 2°56.108 125.4 -999 63 -999
2005-05-24 05:56:42 51°13.598 2°56.108 125.3 0.1 295 -999
2005-05-24 05:56:46 51°13.598 2°56.108 125.2 0.1 282 -999
2005-05-24 05:56:52 51°13.598 2°56.108 125.2 -999 326 -999
2005-05-24 05:56:57 51°13.598 2°56.108 125.2 0.1 132 -999
2005-05-24 05:57:02 51°13.598 2°56.109 125.2 0.1 125 -999
2005-05-24 05:57:06 51°13.598 2°56.109 125.2 0.1 127 -999
2005-05-24 05:57:12 51°13.598 2°56.109 125.2 0.1 158 -999
2005-05-24 05:57:17 51°13.598 2°56.109 125.2 -999 299 -999
2005-05-24 05:57:22 51°13.598 2°56.109 125.2 -999 303 -999
2005-05-24 05:57:26 51°13.598 2°56.109 125.3 -999 318 -999
2005-05-24 05:57:32 51°13.598 2°56.109 125.4 -999 154 -999
2005-05-24 05:57:37 51°13.598 2°56.109 125.5 -999 137 -999
2005-05-24 05:57:42 51°13.598 2°56.109 125.5 -999 72 -999
2005-05-24 05:57:46 51°13.598 2°56.109 125.7 -999 223 -999
2005-05-24 05:57:52 51°13.598 2°56.109 125.7 -999 296 -999
2005-05-24 05:57:57 51°13.598 2°56.109 125.8 -999 296 -999
2005-05-24 05:58:02 51°13.598 2°56.109 125.9 -999 130 -999
2005-05-24 05:58:06 51°13.598 2°56.109 125.9 -999 116 -999
2005-05-24 05:58:12 51°13.598 2°56.109 126 -999 198 -999
2005-05-24 05:58:17 51°13.598 2°56.109 126 -999 82 -999
2005-05-24 05:58:22 51°13.598 2°56.109 126 -999 273 -999
2005-05-24 05:58:26 51°13.598 2°56.109 125.9 -999 208 -999
2005-05-24 05:58:32 51°13.598 2°56.109 125.9 -999 96 -999
2005-05-24 05:58:37 51°13.598 2°56.109 125.9 -999 114 -999
2005-05-24 05:58:42 51°13.598 2°56.109 125.9 -999 118 -999
2005-05-24 05:58:46 51°13.598 2°56.109 125.9 -999 183 -999
2005-05-24 05:58:52 51°13.598 2°56.109 125.9 -999 328 -999
2005-05-24 05:58:57 51°13.598 2°56.109 125.9 -999 338 -999
2005-05-24 05:59:02 51°13.598 2°56.109 125.9 -999 251 -999
2005-05-24 05:59:06 51°13.598 2°56.109 125.9 -999 155 -999
2005-05-24 05:59:12 51°13.598 2°56.109 125.9 -999 285 -999
2005-05-24 05:59:17 51°13.598 2°56.109 125.9 -999 347 -999
2005-05-24 05:59:22 51°13.598 2°56.109 125.9 -999 347 -999
2005-05-24 05:59:27 51°13.598 2°56.109 125.9 -999 10 -999
2005-05-24 05:59:32 51°13.598 2°56.109 125.9 -999 111 -999
2005-05-24 05:59:37 51°13.598 2°56.109 125.8 -999 167 -999
2005-05-24 05:59:42 51°13.598 2°56.109 125.7 -999 221 -999
2005-05-24 05:59:47 51°13.598 2°56.109 125.7 -999 4 -999
2005-05-24 05:59:52 51°13.598 2°56.109 125.7 -999 135 -999
2005-05-24 05:59:57 51°13.599 2°56.108 125.7 -999 216 -999
2005-05-24 06:00:02 51°13.599 2°56.109 125.8 -999 297 -999
2005-05-24 06:00:07 51°13.599 2°56.109 125.8 -999 104 -999
2005-05-24 06:00:12 51°13.599 2°56.109 125.8 -999 134 -999
2005-05-24 06:00:17 51°13.599 2°56.109 125.8 -999 148 -999
2005-05-24 06:00:22 51°13.599 2°56.109 125.9 -999 320 -999
2005-05-24 06:00:27 51°13.599 2°56.109 125.9 -999 308 -999
2005-05-24 06:00:32 51°13.599 2°56.109 125.9 -999 325 -999
2005-05-24 06:00:37 51°13.599 2°56.109 125.8 -999 350 -999
2005-05-24 06:00:42 51°13.599 2°56.109 125.8 -999 162 -999
2005-05-24 06:00:47 51°13.599 2°56.109 125.7 -999 146 -999
2005-05-24 06:00:52 51°13.599 2°56.109 125.6 -999 150 -999
2005-05-24 06:00:57 51°13.599 2°56.109 125.5 -999 95 -999
2005-05-24 06:01:02 51°13.599 2°56.108 125.5 -999 307 -999
2005-05-24 06:01:07 51°13.599 2°56.108 125.4 -999 281 -999
2005-05-24 06:01:12 51°13.599 2°56.108 125.4 -999 314 -999
2005-05-24 06:01:17 51°13.599 2°56.108 125.3 -999 47 -999
2005-05-24 06:01:22 51°13.599 2°56.108 125.3 -999 342 -999
2005-05-24 06:01:27 51°13.599 2°56.108 125.3 -999 124 -999
2005-05-24 06:01:32 51°13.599 2°56.108 125.2 -999 284 -999
2005-05-24 06:01:37 51°13.599 2°56.108 125.2 -999 259 -999
2005-05-24 06:01:42 51°13.599 2°56.108 125.2 -999 281 -999
2005-05-24 06:01:47 51°13.599 2°56.108 125.2 -999 347 -999
2005-05-24 06:01:52 51°13.599 2°56.108 125.4 -999 253 -999
2005-05-24 06:01:57 51°13.599 2°56.108 125.4 0.1 301 -999
2005-05-24 06:02:02 51°13.599 2°56.108 125.5 -999 331 -999
2005-05-24 06:02:07 51°13.599 2°56.108 125.5 -999 277 -999
2005-05-24 06:02:12 51°13.599 2°56.108 125.5 -999 93 -999
2005-05-24 06:02:17 51°13.599 2°56.108 125.5 -999 110 -999
2005-05-24 06:02:22 51°13.599 2°56.108 125.5 -999 304 -999
2005-05-24 06:02:27 51°13.599 2°56.108 125.6 -999 329 -999
2005-05-24 06:02:32 51°13.599 2°56.108 125.7 -999 337 -999
2005-05-24 06:02:37 51°13.599 2°56.108 125.7 -999 330 -999
2005-05-24 06:02:42 51°13.599 2°56.108 125.7 -999 330 -999
2005-05-24 06:02:47 51°13.599 2°56.108 125.7 -999 93 -999
2005-05-24 06:02:52 51°13.599 2°56.108 125.7 -999 15 -999
2005-05-24 06:02:57 51°13.599 2°56.108 125.5 -999 28 -999
2005-05-24 06:03:02 51°13.599 2°56.108 125.4 -999 308 -999
2005-05-24 06:03:07 51°13.599 2°56.108 125.3 -999 303 -999
2005-05-24 06:03:12 51°13.599 2°56.108 125.2 -999 326 -999
2005-05-24 06:03:17 51°13.599 2°56.108 125.2 -999 349 -999
2005-05-24 06:03:22 51°13.599 2°56.108 125.2 -999 185 -999
2005-05-24 06:03:27 51°13.599 2°56.108 125.2 -999 149 -999
2005-05-24 06:03:32 51°13.599 2°56.108 125.2 -999 120 -999
2005-05-24 06:03:37 51°13.599 2°56.108 125.2 -999 54 -999
2005-05-24 06:03:42 51°13.599 2°56.108 125.2 -999 163 -999
2005-05-24 06:03:47 51°13.599 2°56.108 125.2 -999 203 -999
2005-05-24 06:03:52 51°13.599 2°56.108 125.2 -999 210 -999
2005-05-24 06:03:57 51°13.598 2°56.108 125.2 -999 150 -999
2005-05-24 06:04:02 51°13.598 2°56.108 125.2 -999 150 -999
2005-05-24 06:04:07 51°13.598 2°56.108 125.2 -999 150 -999
2005-05-24 06:04:11 51°13.598 2°56.108 125.2 -999 27 -999
2005-05-24 06:04:17 51°13.598 2°56.108 125.2 -999 4 -999
2005-05-24 06:04:22 51°13.598 2°56.108 125.2 0.1 151 -999
2005-05-24 06:04:27 51°13.598 2°56.108 125.2 0.1 151 -999
2005-05-24 06:04:32 51°13.598 2°56.108 125.2 -999 318 -999
2005-05-24 06:04:37 51°13.598 2°56.108 125.2 -999 54 -999
2005-05-24 06:04:42 51°13.598 2°56.108 125.2 -999 129 -999
2005-05-24 06:04:47 51°13.598 2°56.108 125.2 -999 246 -999
2005-05-24 06:04:51 51°13.598 2°56.108 125.2 0.1 317 -999
2005-05-24 06:04:57 51°13.598 2°56.108 125.2 -999 280 -999
2005-05-24 06:05:02 51°13.598 2°56.108 125.2 -999 298 -999
2005-05-24 06:05:07 51°13.598 2°56.108 125.2 -999 324 -999
2005-05-24 06:05:11 51°13.598 2°56.108 125.2 -999 194 -999
2005-05-24 06:05:17 51°13.598 2°56.108 125.2 -999 194 -999
2005-05-24 06:05:22 51°13.598 2°56.108 125.3 -999 302 -999
2005-05-24 06:05:27 51°13.598 2°56.108 125.3 -999 302 -999
2005-05-24 06:05:32 51°13.598 2°56.108 125.3 -999 168 -999
2005-05-24 06:05:37 51°13.598 2°56.108 125.3 -999 85 -999
2005-05-24 06:05:42 51°13.598 2°56.108 125.3 -999 85 -999
2005-05-24 06:05:47 51°13.598 2°56.108 125.3 -999 85 -999
2005-05-24 06:05:52 51°13.598 2°56.108 125.2 -999 85 -999
2005-05-24 06:05:57 51°13.598 2°56.108 125.2 -999 316 -999
2005-05-24 06:06:02 51°13.598 2°56.108 125.2 -999 309 -999
2005-05-24 06:06:07 51°13.598 2°56.108 125.1 -999 275 -999
2005-05-24 06:06:12 51°13.598 2°56.108 125.1 -999 205 -999
2005-05-24 06:06:17 51°13.598 2°56.108 125.1 -999 205 -999
2005-05-24 06:06:22 51°13.598 2°56.108 125.1 -999 126 -999
2005-05-24 06:06:27 51°13.598 2°56.108 125.1 -999 126 -999
2005-05-24 06:06:32 51°13.598 2°56.108 125.1 -999 234 -999
2005-05-24 06:06:37 51°13.598 2°56.108 125.1 -999 234 -999
2005-05-24 06:06:42 51°13.598 2°56.108 125.2 -999 128 -999
2005-05-24 06:06:47 51°13.598 2°56.108 125.3 -999 34 -999
2005-05-24 06:06:52 51°13.598 2°56.108 125.3 -999 63 -999
2005-05-24 06:06:57 51°13.598 2°56.108 125.3 0.1 149 -999
2005-05-24 06:07:02 51°13.598 2°56.108 125.3 -999 182 -999
2005-05-24 06:07:07 51°13.598 2°56.108 125.3 -999 182 -999
2005-05-24 06:07:12 51°13.598 2°56.108 125.3 -999 153 -999
2005-05-24 06:07:17 51°13.598 2°56.108 125.3 -999 129 -999
2005-05-24 06:07:22 51°13.598 2°56.108 125.3 -999 302 -999
2005-05-24 06:07:27 51°13.598 2°56.108 125.3 -999 49 -999
2005-05-24 06:07:32 51°13.598 2°56.108 125.2 -999 49 -999
2005-05-24 06:07:37 51°13.598 2°56.108 125.2 -999 319 -999
2005-05-24 06:07:42 51°13.598 2°56.108 125.2 0.1 327 -999
2005-05-24 06:07:47 51°13.598 2°56.108 125.2 -999 74 -999
2005-05-24 06:07:51 51°13.598 2°56.108 125.2 -999 74 -999
2005-05-24 06:07:58 51°13.598 2°56.108 125.2 -999 98 -999
2005-05-24 06:08:02 51°13.598 2°56.108 125.2 -999 128 -999
2005-05-24 06:08:07 51°13.598 2°56.108 125.2 -999 202 -999
2005-05-24 06:08:11 51°13.598 2°56.108 125.2 -999 283 -999
2005-05-24 06:08:17 51°13.598 2°56.108 125.2 -999 305 -999
2005-05-24 06:08:22 51°13.598 2°56.108 125.2 -999 319 -999
2005-05-24 06:08:27 51°13.597 2°56.108 125.2 -999 326 -999
2005-05-24 06:08:32 51°13.597 2°56.108 125.2 -999 338 -999
2005-05-24 06:08:37 51°13.597 2°56.108 125.2 -999 9 -999
2005-05-24 06:08:42 51°13.597 2°56.108 125.2 -999 9 -999
2005-05-24 06:08:47 51°13.597 2°56.108 125.3 -999 313 -999
2005-05-24 06:08:52 51°13.597 2°56.108 125.3 -999 297 -999
2005-05-24 06:08:57 51°13.597 2°56.108 125.3 -999 341 -999
2005-05-24 06:09:02 51°13.597 2°56.108 125.3 -999 90 -999
2005-05-24 06:09:07 51°13.597 2°56.107 125.3 -999 31 -999
2005-05-24 06:09:12 51°13.597 2°56.107 125.3 -999 301 -999
2005-05-24 06:09:17 51°13.597 2°56.107 125.3 -999 301 -999
2005-05-24 06:09:22 51°13.597 2°56.108 125.3 -999 301 -999
2005-05-24 06:09:27 51°13.597 2°56.108 125.4 -999 191 -999
2005-05-24 06:09:32 51°13.597 2°56.108 125.5 -999 191 -999
2005-05-24 06:09:37 51°13.597 2°56.108 125.5 -999 170 -999
2005-05-24 06:09:42 51°13.597 2°56.108 125.5 -999 323 -999
2005-05-24 06:09:47 51°13.597 2°56.107 125.5 -999 340 -999
2005-05-24 06:09:52 51°13.597 2°56.107 125.5 -999 260 -999
2005-05-24 06:09:57 51°13.597 2°56.108 125.5 -999 260 -999
2005-05-24 06:10:02 51°13.597 2°56.108 125.5 -999 352 -999
2005-05-24 06:10:07 51°13.597 2°56.108 125.5 -999 115 -999
2005-05-24 06:10:12 51°13.597 2°56.107 125.4 -999 102 -999
2005-05-24 06:10:17 51°13.597 2°56.107 125.3 -999 328 -999
2005-05-24 06:10:22 51°13.597 2°56.107 125.2 -999 315 -999
2005-05-24 06:10:27 51°13.596 2°56.107 125.2 -999 103 -999
2005-05-24 06:10:31 51°13.596 2°56.107 125.2 -999 134 -999
2005-05-24 06:10:37 51°13.596 2°56.107 125.2 -999 134 -999
2005-05-24 06:10:42 51°13.596 2°56.107 125.2 -999 137 -999
2005-05-24 06:10:47 51°13.596 2°56.107 125.2 -999 131 -999
2005-05-24 06:10:52 51°13.596 2°56.107 125.3 -999 232 -999
2005-05-24 06:10:57 51°13.596 2°56.107 125.3 -999 232 -999
2005-05-24 06:11:02 51°13.596 2°56.107 125.4 -999 232 -999
2005-05-24 06:11:07 51°13.596 2°56.107 125.4 -999 342 -999
2005-05-24 06:11:12 51°13.596 2°56.107 125.4 -999 342 -999
2005-05-24 06:11:17 51°13.596 2°56.107 125.4 -999 43 -999
2005-05-24 06:11:22 51°13.596 2°56.106 125.4 -999 43 -999
2005-05-24 06:11:27 51°13.596 2°56.107 125.4 -999 69 -999
2005-05-24 06:11:32 51°13.596 2°56.107 125.4 -999 120 -999
2005-05-24 06:11:37 51°13.596 2°56.107 125.4 -999 138 -999
2005-05-24 06:11:45 51°13.596 2°56.107 -999 -999 138 -999
2005-05-24 06:11:49 51°13.596 2°56.107 125.7 -999 315 -999
2005-05-24 06:11:53 51°13.596 2°56.107 125.7 -999 285 -999
2005-05-24 06:11:57 51°13.596 2°56.107 125.9 -999 243 -999
2005-05-24 06:12:02 51°13.596 2°56.107 125.9 -999 215 -999
2005-05-24 06:12:07 51°13.596 2°56.107 126 -999 352 -999
2005-05-24 06:12:12 51°13.596 2°56.107 126.1 -999 87 -999
2005-05-24 06:12:17 51°13.596 2°56.107 126.1 -999 151 -999
2005-05-24 06:12:22 51°13.596 2°56.107 126.1 -999 17 -999
2005-05-24 06:12:27 51°13.596 2°56.107 126 -999 280 -999
2005-05-24 06:12:31 51°13.597 2°56.107 126 -999 353 -999
2005-05-24 06:12:35 51°13.597 2°56.107 126 -999 265 -999
2005-05-24 06:12:41 51°13.597 2°56.107 126 -999 331 4.9
2005-05-24 06:12:46 51°13.597 2°56.107 126 -999 195 -999
2005-05-24 06:12:51 51°13.597 2°56.107 126 -999 195 -999
2005-05-24 06:12:56 51°13.597 2°56.107 126.1 -999 276 -999
2005-05-24 06:13:01 51°13.597 2°56.107 126.1 -999 276 -999
2005-05-24 06:13:06 51°13.597 2°56.107 126.1 -999 276 -999
2005-05-24 06:13:11 51°13.597 2°56.107 126.1 0.1 302 -999
2005-05-24 06:13:16 51°13.597 2°56.107 126.1 0.1 316 -999
2005-05-24 06:13:22 51°13.597 2°56.107 126.1 0.1 316 -999
2005-05-24 06:13:26 51°13.597 2°56.107 126 -999 112 -999
2005-05-24 06:13:31 51°13.597 2°56.107 125.9 -999 112 -999
2005-05-24 06:13:36 51°13.597 2°56.107 125.7 -999 309 4.9
2005-05-24 06:13:42 51°13.597 2°56.107 125.6 -999 319 -999
2005-05-24 06:13:46 51°13.597 2°56.107 125.5 -999 319 -999
2005-05-24 06:13:51 51°13.597 2°56.107 125.5 -999 318 -999
2005-05-24 06:13:56 51°13.597 2°56.107 125.5 -999 302 -999
2005-05-24 06:14:02 51°13.597 2°56.107 125.5 -999 302 -999
2005-05-24 06:14:06 51°13.597 2°56.107 125.5 -999 302 -999
2005-05-24 06:14:11 51°13.597 2°56.108 125.5 -999 100 -999
2005-05-24 06:14:16 51°13.597 2°56.108 125.5 -999 108 -999
2005-05-24 06:14:22 51°13.597 2°56.108 125.5 -999 154 -999
2005-05-24 06:14:26 51°13.598 2°56.108 125.5 -999 154 -999
2005-05-24 06:14:31 51°13.598 2°56.108 125.5 -999 330 -999
2005-05-24 06:14:36 51°13.598 2°56.108 125.6 -999 330 -999
2005-05-24 06:14:41 51°13.598 2°56.108 125.6 -999 242 -999
2005-05-24 06:14:46 51°13.598 2°56.108 125.6 0.1 41 -999
2005-05-24 06:14:51 51°13.598 2°56.108 125.6 -999 30 -999
2005-05-24 06:14:56 51°13.598 2°56.108 125.6 -999 330 -999
2005-05-24 06:15:01 51°13.598 2°56.108 125.6 -999 141 -999
2005-05-24 06:15:06 51°13.598 2°56.108 125.6 -999 162 -999
2005-05-24 06:15:11 51°13.598 2°56.108 125.7 -999 155 -999
2005-05-24 06:15:16 51°13.598 2°56.108 125.8 -999 354 4.8
2005-05-24 06:15:21 51°13.598 2°56.108 126 -999 22 -999
2005-05-24 06:15:26 51°13.598 2°56.108 126.1 -999 230 -999
2005-05-24 06:15:31 51°13.598 2°56.108 126.1 -999 154 -999
2005-05-24 06:15:36 51°13.598 2°56.108 126.2 -999 323 -999
2005-05-24 06:15:42 51°13.598 2°56.108 126.2 0.1 327 -999
2005-05-24 06:15:46 51°13.598 2°56.108 126.1 0.1 312 -999
2005-05-24 06:15:51 51°13.598 2°56.108 125.9 -999 229 -999
2005-05-24 06:15:56 51°13.598 2°56.109 125.6 -999 283 -999
2005-05-24 06:16:02 51°13.598 2°56.109 125.5 -999 283 -999
2005-05-24 06:16:06 51°13.598 2°56.109 125.5 -999 283 -999
2005-05-24 06:16:11 51°13.598 2°56.109 125.4 0.1 298 -999
2005-05-24 06:16:15 51°13.598 2°56.109 125.4 -999 218 -999
2005-05-24 06:16:22 51°13.598 2°56.109 125.4 -999 145 -999
2005-05-24 06:16:26 51°13.598 2°56.109 125.4 -999 145 -999
2005-05-24 06:16:31 51°13.598 2°56.109 125.4 0.1 124 -999
2005-05-24 06:16:36 51°13.598 2°56.109 125.6 0.1 124 -999
2005-05-24 06:16:42 51°13.598 2°56.109 125.7 0.1 124 -999
2005-05-24 06:16:46 51°13.598 2°56.109 125.7 -999 134 -999
2005-05-24 06:16:51 51°13.598 2°56.109 125.7 -999 294 -999
2005-05-24 06:16:56 51°13.598 2°56.109 125.6 -999 285 -999
2005-05-24 06:17:01 51°13.598 2°56.109 125.5 -999 285 -999
2005-05-24 06:17:07 51°13.598 2°56.109 125.5 -999 292 -999
2005-05-24 06:17:11 51°13.598 2°56.109 125.5 -999 136 -999
2005-05-24 06:17:16 51°13.598 2°56.109 125.5 -999 136 -999
2005-05-24 06:17:22 51°13.598 2°56.109 125.6 -999 136 -999
2005-05-24 06:17:26 51°13.598 2°56.109 125.6 -999 310 -999
2005-05-24 06:17:31 51°13.598 2°56.109 125.6 -999 310 -999
2005-05-24 06:17:36 51°13.598 2°56.109 125.6 0.1 278 -999
2005-05-24 06:17:42 51°13.598 2°56.109 125.5 -999 191 -999
2005-05-24 06:17:46 51°13.598 2°56.109 125.5 -999 183 -999
2005-05-24 06:17:51 51°13.598 2°56.109 125.4 -999 100 -999
2005-05-24 06:17:57 51°13.598 2°56.109 125.2 -999 161 -999
2005-05-24 06:18:01 51°13.598 2°56.109 125.2 -999 193 -999
2005-05-24 06:18:06 51°13.598 2°56.109 125.1 -999 210 -999
2005-05-24 06:18:11 51°13.598 2°56.109 125.1 -999 304 -999
2005-05-24 06:18:16 51°13.598 2°56.109 125.1 -999 327 -999
2005-05-24 06:18:21 51°13.598 2°56.109 125.1 -999 241 -999
2005-05-24 06:18:26 51°13.598 2°56.109 125.1 -999 303 -999
2005-05-24 06:18:31 51°13.598 2°56.108 125.2 0.1 301 -999
2005-05-24 06:18:36 51°13.598 2°56.108 125.4 0.1 324 -999
2005-05-24 06:18:42 51°13.598 2°56.108 125.4 -999 285 -999
2005-05-24 06:18:46 51°13.598 2°56.109 125.4 -999 148 4.9
2005-05-24 06:18:51 51°13.598 2°56.109 125.4 0.1 125 -999
2005-05-24 06:18:56 51°13.598 2°56.109 125.4 0.1 125 -999
2005-05-24 06:19:02 51°13.598 2°56.109 125.4 0.1 128 -999
2005-05-24 06:19:06 51°13.598 2°56.109 125.4 -999 163 -999
2005-05-24 06:19:11 51°13.598 2°56.109 125.4 -999 299 -999
2005-05-24 06:19:16 51°13.599 2°56.109 125.5 0.1 314 -999
2005-05-24 06:19:21 51°13.599 2°56.109 125.6 0.1 319 4.9
2005-05-24 06:19:26 51°13.598 2°56.109 125.7 -999 328 -999
2005-05-24 06:19:31 51°13.599 2°56.109 125.7 -999 328 -999
2005-05-24 06:19:36 51°13.598 2°56.109 125.7 -999 328 -999
2005-05-24 06:19:41 51°13.598 2°56.109 125.5 0.1 132 -999
2005-05-24 06:19:46 51°13.598 2°56.109 125.5 0.1 130 -999
2005-05-24 06:19:51 51°13.598 2°56.109 125.5 -999 189 -999
2005-05-24 06:19:56 51°13.598 2°56.109 125.5 -999 320 -999
2005-05-24 06:20:01 51°13.598 2°56.109 125.6 -999 271 -999
2005-05-24 06:20:06 51°13.598 2°56.109 125.7 -999 271 -999
2005-05-24 06:20:11 51°13.598 2°56.109 126.2 -999 249 -999
2005-05-24 06:20:16 51°13.598 2°56.109 126.4 -999 273 4.8
2005-05-24 06:20:21 51°13.599 2°56.109 126.7 0.1 319 -999
2005-05-24 06:20:26 51°13.599 2°56.109 126.8 0.1 319 -999
2005-05-24 06:20:31 51°13.599 2°56.109 126.8 -999 78 4.8
2005-05-24 06:20:35 51°13.599 2°56.109 126.9 -999 161 -999
2005-05-24 06:20:41 51°13.599 2°56.109 126.9 -999 161 -999
2005-05-24 06:20:46 51°13.599 2°56.109 126.9 -999 293 -999
2005-05-24 06:20:51 51°13.599 2°56.109 126.9 -999 17 -999
2005-05-24 06:20:55 51°13.599 2°56.109 126.9 -999 354 -999
2005-05-24 06:21:02 51°13.599 2°56.109 126.9 -999 354 -999
2005-05-24 06:21:06 51°13.599 2°56.109 126.9 -999 354 4.8
2005-05-24 06:21:11 51°13.6 2°56.109 126.9 -999 354 4.8
2005-05-24 06:21:15 51°13.6 2°56.109 126.9 -999 40 4.8
2005-05-24 06:21:21 51°13.6 2°56.109 126.9 -999 35 4.8
2005-05-24 06:21:26 51°13.6 2°56.109 126.9 -999 35 4.8
2005-05-24 06:21:30 51°13.6 2°56.109 126.9 -999 11 4.8
2005-05-24 06:21:35 51°13.6 2°56.109 126.8 -999 11 4.8
2005-05-24 06:21:41 51°13.6 2°56.109 126.6 -999 321 4.8
2005-05-24 06:21:46 51°13.6 2°56.109 126.4 -999 326 4.8
2005-05-24 06:21:50 51°13.6 2°56.109 126.3 -999 90 4.8
2005-05-24 06:21:55 51°13.6 2°56.109 126.2 -999 90 4.8
2005-05-24 06:22:00 51°13.6 2°56.109 126.2 -999 186 4.8
2005-05-24 06:22:06 51°13.6 2°56.109 126.2 -999 191 4.8
2005-05-24 06:22:11 51°13.6 2°56.109 126.2 -999 163 4.8
2005-05-24 06:22:16 51°13.601 2°56.109 126.2 -999 343 4.9
2005-05-24 06:22:21 51°13.601 2°56.109 126.2 -999 300 4.7
2005-05-24 06:22:26 51°13.601 2°56.109 126.2 -999 144 4.8
2005-05-24 06:22:30 51°13.601 2°56.109 126.2 -999 64 4.8
2005-05-24 06:22:35 51°13.601 2°56.109 126.1 -999 62 4.8
2005-05-24 06:22:41 51°13.6 2°56.109 126.1 -999 209 4.8
2005-05-24 06:22:46 51°13.6 2°56.109 126.1 -999 159 4.8
2005-05-24 06:22:50 51°13.6 2°56.109 126.1 -999 159 4.8
2005-05-24 06:22:56 51°13.6 2°56.109 126.1 -999 312 4.7
2005-05-24 06:23:01 51°13.6 2°56.109 126.1 -999 6 4.8
2005-05-24 06:23:06 51°13.6 2°56.109 126.4 -999 326 4.8
2005-05-24 06:23:10 51°13.6 2°56.109 126.5 -999 332 4.8
2005-05-24 06:23:16 51°13.6 2°56.109 126.5 -999 332 4.7
2005-05-24 06:23:21 51°13.6 2°56.109 126.2 -999 121 4.8
2005-05-24 06:23:26 51°13.6 2°56.109 126.2 -999 219 4.8
2005-05-24 06:23:30 51°13.6 2°56.109 126.2 -999 219 4.8
2005-05-24 06:23:35 51°13.6 2°56.109 126.2 -999 89 4.8
2005-05-24 06:23:41 51°13.599 2°56.109 126.2 0.1 145 4.8
2005-05-24 06:23:46 51°13.599 2°56.109 126.2 0.1 145 4.8
2005-05-24 06:23:51 51°13.599 2°56.109 126.2 -999 86 4.8
2005-05-24 06:23:56 51°13.599 2°56.109 126.2 -999 86 4.8
2005-05-24 06:24:00 51°13.599 2°56.109 126.1 -999 333 4.8
2005-05-24 06:24:06 51°13.599 2°56.109 126 -999 333 4.8
2005-05-24 06:24:11 51°13.599 2°56.109 125.9 -999 157 4.8
2005-05-24 06:24:15 51°13.599 2°56.109 125.8 -999 180 4.8
2005-05-24 06:24:21 51°13.599 2°56.109 125.8 -999 178 4.8
2005-05-24 06:24:26 51°13.599 2°56.109 125.8 0.1 198 4.8
2005-05-24 06:24:30 51°13.599 2°56.109 125.8 -999 331 4.8
2005-05-24 06:24:35 51°13.599 2°56.109 125.8 -999 331 4.8
2005-05-24 06:24:41 51°13.599 2°56.109 125.8 -999 315 4.8
2005-05-24 06:24:46 51°13.599 2°56.109 125.8 -999 315 4.8
2005-05-24 06:24:50 51°13.599 2°56.109 125.8 -999 315 4.8
2005-05-24 06:24:56 51°13.599 2°56.109 125.9 -999 315 4.8
2005-05-24 06:25:01 51°13.599 2°56.109 126.4 0.1 154 4.7
2005-05-24 06:25:06 51°13.599 2°56.109 126.5 0.1 154 4.8
2005-05-24 06:25:11 51°13.599 2°56.109 126.8 -999 157 4.8
2005-05-24 06:25:15 51°13.599 2°56.109 127 -999 157 4.8
2005-05-24 06:25:21 51°13.599 2°56.109 127.3 -999 247 4.8
2005-05-24 06:25:26 51°13.599 2°56.109 127.4 -999 277 4.8
2005-05-24 06:25:31 51°13.599 2°56.109 127.6 -999 334 4.8
2005-05-24 06:25:35 51°13.599 2°56.109 127.6 0.1 341 4.8
2005-05-24 06:25:41 51°13.599 2°56.109 127.4 -999 10 4.8
2005-05-24 06:25:46 51°13.599 2°56.109 126.8 -999 118 4.8
2005-05-24 06:25:51 51°13.599 2°56.109 126 -999 118 4.8
2005-05-24 06:25:55 51°13.599 2°56.109 125.5 -999 118 4.8
2005-05-24 06:26:01 51°13.599 2°56.109 125.1 -999 237 4.8
2005-05-24 06:26:06 51°13.599 2°56.109 124.7 -999 194 4.8
2005-05-24 06:26:10 51°13.599 2°56.109 124.2 0.1 175 4.8
2005-05-24 06:26:15 51°13.599 2°56.11 123.8 0.1 151 4.8
2005-05-24 06:26:21 51°13.599 2°56.109 123.4 -999 188 4.8
2005-05-24 06:26:26 51°13.599 2°56.11 123 0.1 177 4.8
2005-05-24 06:26:30 51°13.599 2°56.109 122.5 -999 167 4.8
2005-05-24 06:26:36 51°13.598 2°56.109 122.1 -999 167 4.8
2005-05-24 06:26:41 51°13.598 2°56.109 121.6 0.1 206 4.8
2005-05-24 06:26:46 51°13.598 2°56.109 121 0.1 210 4.8
2005-05-24 06:26:51 51°13.598 2°56.109 120.3 0.1 260 4.8
2005-05-24 06:26:55 51°13.598 2°56.109 119.6 0.1 260 4.8
2005-05-24 06:27:00 51°13.598 2°56.109 118.8 0.1 206 4.8
2005-05-24 06:27:06 51°13.598 2°56.109 118 0.1 169 4.8
2005-05-24 06:27:11 51°13.597 2°56.109 117.3 0.1 162 4.7
2005-05-24 06:27:15 51°13.597 2°56.109 116.5 0.1 171 4.8
2005-05-24 06:27:20 51°13.597 2°56.109 115.7 0.1 189 4.8
2005-05-24 06:27:26 51°13.597 2°56.109 114.8 0.1 189 4.8
2005-05-24 06:27:30 51°13.597 2°56.109 113.9 0.1 190 4.8
2005-05-24 06:27:35 51°13.597 2°56.109 113.1 -999 176 4.8
2005-05-24 06:27:41 51°13.597 2°56.109 112.1 -999 176 4.8
2005-05-24 06:27:46 51°13.597 2°56.109 111.1 -999 295 4.8
2005-05-24 06:27:50 51°13.597 2°56.108 110.8 -999 295 4.8
2005-05-24 06:27:56 51°13.597 2°56.107 110.8 0.3 289 4.7
2005-05-24 06:28:01 51°13.597 2°56.106 110.8 0.4 276 4.8
2005-05-24 06:28:06 51°13.598 2°56.105 110.8 0.5 288 4.8
2005-05-24 06:28:10 51°13.598 2°56.104 110.8 0.7 288 4.8
2005-05-24 06:28:15 51°13.598 2°56.102 110.6 0.9 290 4.8
2005-05-24 06:28:21 51°13.599 2°56.099 110.4 0.9 290 4.8
2005-05-24 06:28:26 51°13.599 2°56.096 110.3 0.9 290 4.9
2005-05-24 06:28:30 51°13.6 2°56.094 110 1.3 288 -999
2005-05-24 06:28:36 51°13.601 2°56.09 109.9 1.6 288 -999
2005-05-24 06:28:41 51°13.602 2°56.086 110.2 1.6 288 -999
2005-05-24 06:28:46 51°13.603 2°56.082 110.7 2.1 289 -999
2005-05-24 06:28:51 51°13.604 2°56.076 111.1 2.1 289 -999
2005-05-24 06:28:57 51°13.606 2°56.069 111.9 2.8 292 -999
2005-05-24 06:29:01 51°13.607 2°56.063 112.6 3.1 292 -999
2005-05-24 06:29:06 51°13.609 2°56.057 113.2 3.1 293 -999
2005-05-24 06:29:11 51°13.611 2°56.049 113.9 3.4 293 -999
2005-05-24 06:29:15 51°13.613 2°56.043 113.9 3.6 293 -999
2005-05-24 06:29:21 51°13.615 2°56.034 113.6 3.8 292 -999
2005-05-24 06:29:26 51°13.617 2°56.026 112.8 3.8 291 -999
2005-05-24 06:29:31 51°13.619 2°56.017 112.1 4 290 -999
2005-05-24 06:29:36 51°13.62 2°56.009 111.7 4.1 289 -999
2005-05-24 06:29:41 51°13.623 2°56 111.6 4.1 290 -999
2005-05-24 06:29:46 51°13.625 2°55.991 111.7 4.2 290 -999
2005-05-24 06:29:51 51°13.626 2°55.982 112.1 4.2 290 -999
2005-05-24 06:29:56 51°13.629 2°55.974 113 4.3 290 -999
2005-05-24 06:30:02 51°13.631 2°55.964 113.9 4.3 291 -999
2005-05-24 06:30:07 51°13.634 2°55.954 114.8 4.4 292 -999
2005-05-24 06:30:11 51°13.636 2°55.946 115.7 4.4 293 -999
2005-05-24 06:30:16 51°13.638 2°55.937 116.6 4.4 293 -999
2005-05-24 06:30:22 51°13.641 2°55.928 117.6 4.5 293 -999
2005-05-24 06:30:26 51°13.643 2°55.92 118.7 4.5 294 -999
2005-05-24 06:30:31 51°13.646 2°55.91 120 4.6 295 -999
2005-05-24 06:30:36 51°13.648 2°55.902 121.3 4.7 296 -999
2005-05-24 06:30:41 51°13.652 2°55.892 122.3 4.7 296 -999
2005-05-24 06:30:46 51°13.655 2°55.883 123.7 4.7 297 -999
2005-05-24 06:30:51 51°13.658 2°55.873 124.5 4.7 297 4.8
2005-05-24 06:30:56 51°13.662 2°55.864 125.6 4.8 300 -999
2005-05-24 06:31:02 51°13.665 2°55.854 126.4 4.8 300 -999
2005-05-24 06:31:06 51°13.669 2°55.846 127.5 4.8 303 -999
2005-05-24 06:31:11 51°13.673 2°55.837 128.5 4.9 305 -999
2005-05-24 06:31:16 51°13.677 2°55.829 129.8 4.9 305 -999
2005-05-24 06:31:21 51°13.681 2°55.82 131 4.9 308 -999
2005-05-24 06:31:26 51°13.685 2°55.812 132.2 5 309 5.1
2005-05-24 06:31:31 51°13.69 2°55.803 133.2 5 309 -999
2005-05-24 06:31:36 51°13.694 2°55.795 134 5.1 312 -999
2005-05-24 06:31:41 51°13.699 2°55.786 134.8 5.1 312 -999
2005-05-24 06:31:46 51°13.704 2°55.777 135.2 5.1 312 -999
2005-05-24 06:31:51 51°13.709 2°55.768 135.5 5.2 311 -999
2005-05-24 06:31:56 51°13.714 2°55.76 135.8 5.2 312 -999
2005-05-24 06:32:02 51°13.719 2°55.75 136.3 5.2 312 -999
2005-05-24 06:32:06 51°13.723 2°55.743 137.4 5.1 313 -999
2005-05-24 06:32:11 51°13.728 2°55.735 138.9 5 315 -999
2005-05-24 06:32:16 51°13.733 2°55.728 140.8 5 316 -999
2005-05-24 06:32:21 51°13.739 2°55.721 142.7 5.1 318 -999
2005-05-24 06:32:26 51°13.744 2°55.714 144.4 5 320 -999
2005-05-24 06:32:31 51°13.749 2°55.707 146.1 4.9 321 -999
2005-05-24 06:32:36 51°13.755 2°55.7 147.7 4.9 323 -999
2005-05-24 06:32:42 51°13.761 2°55.694 149.5 4.9 324 -999
2005-05-24 06:32:47 51°13.766 2°55.688 151.5 4.9 325 -999
2005-05-24 06:32:51 51°13.772 2°55.683 153.6 4.9 325 -999
2005-05-24 06:32:56 51°13.777 2°55.678 155.5 4.8 329 -999
2005-05-24 06:33:01 51°13.784 2°55.673 158.1 4.9 332 -999
2005-05-24 06:33:06 51°13.789 2°55.669 160.7 5 335 -999
2005-05-24 06:33:11 51°13.797 2°55.664 162.8 5.1 336 -999
2005-05-24 06:33:15 51°13.802 2°55.661 164.7 5.1 340 -999
2005-05-24 06:33:21 51°13.81 2°55.656 166.7 5.1 340 -999
2005-05-24 06:33:26 51°13.817 2°55.653 168.4 5.2 342 -999
2005-05-24 06:33:31 51°13.824 2°55.65 170.2 5.2 342 -999
2005-05-24 06:33:36 51°13.831 2°55.648 172 5.2 346 5
2005-05-24 06:33:42 51°13.839 2°55.646 173.9 5.2 349 -999
2005-05-24 06:33:46 51°13.845 2°55.644 175.9 5.1 351 -999
2005-05-24 06:33:51 51°13.852 2°55.643 178 5.1 351 -999
2005-05-24 06:33:55 51°13.858 2°55.642 180 5 355 -999
2005-05-24 06:34:02 51°13.867 2°55.642 182.1 5 356 -999
2005-05-24 06:34:06 51°13.873 2°55.642 184.3 4.9 359 -999
2005-05-24 06:34:11 51°13.88 2°55.642 186.1 4.9 359 -999
2005-05-24 06:34:16 51°13.886 2°55.643 188.9 4.9 359 -999
2005-05-24 06:34:22 51°13.893 2°55.645 191.4 4.8 5 -999
2005-05-24 06:34:26 51°13.9 2°55.646 193.8 4.8 8 -999
2005-05-24 06:34:31 51°13.906 2°55.648 196.3 4.8 11 -999
2005-05-24 06:34:36 51°13.913 2°55.651 198.8 4.8 14 -999
2005-05-24 06:34:42 51°13.919 2°55.654 201 4.6 15 -999
2005-05-24 06:34:46 51°13.924 2°55.656 203.2 4.4 16 -999
2005-05-24 06:34:51 51°13.93 2°55.659 204.7 4.1 17 -999
2005-05-24 06:34:56 51°13.934 2°55.662 206.1 3.8 18 -999
2005-05-24 06:35:01 51°13.937 2°55.664 208.5 2.9 21 -999
2005-05-24 06:35:06 51°13.94 2°55.666 211.2 2.4 23 4.8
2005-05-24 06:35:11 51°13.941 2°55.666 213.3 1.7 21 7.4
2005-05-24 06:35:15 51°13.942 2°55.666 216.2 1.7 21 7.4
2005-05-24 06:35:21 51°13.942 2°55.665 219.9 1.7 21 7.4
2005-05-24 06:35:26 51°13.941 2°55.662 224.9 1 251 5.5
2005-05-24 06:35:31 51°13.94 2°55.658 230 1 251 7.4
2005-05-24 06:35:35 51°13.939 2°55.654 237.3 1 251 7.5
2005-05-24 06:35:41 51°13.938 2°55.646 245.3 2.8 253 7.5
2005-05-24 06:35:46 51°13.937 2°55.639 253.1 2.8 253 7.6
2005-05-24 06:35:51 51°13.938 2°55.63 262.7 2.8 253 7.8
2005-05-24 06:35:56 51°13.939 2°55.62 269.3 2.8 253 7.8
2005-05-24 06:36:01 51°13.941 2°55.609 277.9 4.6 289 7.9
2005-05-24 06:36:06 51°13.945 2°55.601 286.4 4.6 289 7.9
2005-05-24 06:36:11 51°13.95 2°55.591 295.1 4.6 289 8.3
2005-05-24 06:36:16 51°13.955 2°55.583 304.2 5.2 312 7.8
2005-05-24 06:36:21 51°13.961 2°55.575 314.7 5.2 315 7.8
2005-05-24 06:36:26 51°13.967 2°55.57 321.3 5.4 325 7.8
2005-05-24 06:36:31 51°13.974 2°55.564 329.5 5.6 332 7.7
2005-05-24 06:36:36 51°13.981 2°55.558 336.1 5.7 333 5.7
2005-05-24 06:36:41 51°13.989 2°55.551 337.1 6 331 7.7
2005-05-24 06:36:46 51°13.996 2°55.545 336.3 6 331 7.7
2005-05-24 06:36:50 51°14.003 2°55.539 336 6.4 332 7.7
2005-05-24 06:36:55 51°14.011 2°55.533 336.8 6.5 333 7.7
2005-05-24 06:37:01 51°14.021 2°55.525 338.1 6.7 334 7.7
2005-05-24 06:37:06 51°14.029 2°55.519 338.5 6.8 334 7.7
2005-05-24 06:37:11 51°14.038 2°55.512 338.2 7 333 5.7
2005-05-24 06:37:16 51°14.047 2°55.505 338.2 7 333 -999
2005-05-24 06:37:22 51°14.057 2°55.497 338.9 7.3 334 -999
2005-05-24 06:37:26 51°14.066 2°55.49 338.9 7.3 334 8.8
2005-05-24 06:37:30 51°14.073 2°55.484 338.9 7.4 334 8.2
2005-05-24 06:37:36 51°14.083 2°55.476 338.5 7.4 334 8.3
2005-05-24 06:37:41 51°14.092 2°55.469 337.7 7.5 332 8.2
2005-05-24 06:37:46 51°14.102 2°55.46 337 7.5 332 8.2
2005-05-24 06:37:51 51°14.112 2°55.451 336 7.6 331 8.3
2005-05-24 06:37:56 51°14.12 2°55.444 335 7.7 331 8.3
2005-05-24 06:38:01 51°14.131 2°55.435 334.5 7.8 331 8.3
2005-05-24 06:38:06 51°14.139 2°55.427 335.3 7.8 332 8.3
2005-05-24 06:38:11 51°14.15 2°55.418 335.6 7.8 332 8.3
2005-05-24 06:38:16 51°14.158 2°55.41 334.9 7.9 330 -999
2005-05-24 06:38:21 51°14.168 2°55.4 333.8 7.9 330 8.7
2005-05-24 06:38:26 51°14.176 2°55.391 332.8 7.9 328 8.4
2005-05-24 06:38:30 51°14.185 2°55.382 332.1 7.9 328 9
2005-05-24 06:38:36 51°14.195 2°55.371 331.3 7.9 328 8.5
2005-05-24 06:38:41 51°14.206 2°55.359 330.9 8.5 325 8.4
2005-05-24 06:38:46 51°14.215 2°55.349 330.2 8.5 325 8.8
2005-05-24 06:38:50 51°14.223 2°55.338 328.7 8.8 322 8.5
2005-05-24 06:38:56 51°14.234 2°55.323 326.6 8.8 322 8.4
2005-05-24 06:39:01 51°14.244 2°55.31 324.7 9.2 319 8.4
2005-05-24 06:39:06 51°14.253 2°55.296 323.3 9.2 319 8.4
2005-05-24 06:39:11 51°14.263 2°55.281 322 9.3 316 8.3
2005-05-24 06:39:15 51°14.271 2°55.268 320.5 9.4 315 8.4
2005-05-24 06:39:21 51°14.281 2°55.25 319 9.5 314 8.3
2005-05-24 06:39:26 51°14.289 2°55.235 317.4 9.5 314 8.3
2005-05-24 06:39:31 51°14.299 2°55.217 316.1 9.7 310 8.3
2005-05-24 06:39:36 51°14.306 2°55.202 314.5 9.7 309 8.2
2005-05-24 06:39:40 51°14.314 2°55.187 312.8 9.8 309 8.1
2005-05-24 06:39:46 51°14.323 2°55.169 312 9.8 309 8.3
2005-05-24 06:39:51 51°14.333 2°55.15 312.6 9.8 309 8.4
2005-05-24 06:39:56 51°14.341 2°55.135 313.7 9.8 309 8.5
2005-05-24 06:40:01 51°14.352 2°55.118 315.2 9.9 311 8.4
2005-05-24 06:40:06 51°14.361 2°55.105 317.1 9.9 311 8.3
2005-05-24 06:40:11 51°14.372 2°55.088 319.9 10 318 8.5
2005-05-24 06:40:16 51°14.381 2°55.075 321.5 10 318 8.3
2005-05-24 06:40:21 51°14.392 2°55.058 322 10 317 8.6
2005-05-24 06:40:26 51°14.401 2°55.044 321.8 10.1 316 8.6
2005-05-24 06:40:31 51°14.412 2°55.026 320.6 10.2 315 8.6
2005-05-24 06:40:35 51°14.421 2°55.014 320 10.2 315 8.5
2005-05-24 06:40:41 51°14.434 2°54.996 321 10.2 315 8.5
2005-05-24 06:40:46 51°14.445 2°54.984 324.1 10.2 315 8.6
2005-05-24 06:40:50 51°14.455 2°54.971 328.7 10.7 324 8.4
2005-05-24 06:40:55 51°14.467 2°54.957 330.7 10.9 323 8.3
2005-05-24 06:41:01 51°14.482 2°54.939 330.5 11 322 8.2
2005-05-24 06:41:06 51°14.494 2°54.927 332.6 11 322 8.1
2005-05-24 06:41:10 51°14.507 2°54.916 336.1 11.6 330 8.1
2005-05-24 06:41:16 51°14.525 2°54.902 338.9 11.7 331 8
2005-05-24 06:41:21 51°14.54 2°54.891 342.4 12 334 8
2005-05-24 06:41:26 51°14.554 2°54.881 344.6 12.1 336 7.9
2005-05-24 06:41:31 51°14.571 2°54.868 345.4 12.3 334 7.8
2005-05-24 06:41:36 51°14.585 2°54.856 345.1 12.3 335 5.7
2005-05-24 06:41:41 51°14.601 2°54.843 344.4 12.5 333 7.7
2005-05-24 06:41:46 51°14.615 2°54.831 343.3 12.5 333 7.6
2005-05-24 06:41:51 51°14.632 2°54.818 342.5 12.5 333 7.6
2005-05-24 06:41:55 51°14.645 2°54.809 343.8 12.5 335 5.6
2005-05-24 06:42:01 51°14.665 2°54.798 346.3 12.5 339 7.5
2005-05-24 06:42:06 51°14.68 2°54.791 350 12.5 339 7.5
2005-05-24 06:42:11 51°14.698 2°54.783 352.5 12.4 345 7.5
2005-05-24 06:42:15 51°14.712 2°54.779 354.9 12.4 345 7.5
2005-05-24 06:42:21 51°14.731 2°54.772 356.9 12.4 348 7.4
2005-05-24 06:42:26 51°14.746 2°54.767 358.5 12.3 348 7.5
2005-05-24 06:42:31 51°14.765 2°54.762 359.4 12.3 350 7.4
2005-05-24 06:42:35 51°14.778 2°54.758 0.3 12.3 350 7.3
2005-05-24 06:42:41 51°14.799 2°54.753 0.6 12.3 350 7.3
2005-05-24 06:42:46 51°14.814 2°54.748 0.8 12.3 350 5.4
2005-05-24 06:42:50 51°14.829 2°54.743 0.3 12.3 349 7.2
2005-05-24 06:42:56 51°14.848 2°54.735 359.7 12.3 349 7.2
2005-05-24 06:43:01 51°14.863 2°54.729 357.8 12.4 344 7.1
2005-05-24 06:43:06 51°14.88 2°54.72 355.9 12.4 343 7.1
2005-05-24 06:43:10 51°14.894 2°54.712 353.3 12.4 341 7.1
2005-05-24 06:43:16 51°14.912 2°54.701 351.2 12.4 341 7
2005-05-24 06:43:21 51°14.93 2°54.69 349.8 12.4 340 7
2005-05-24 06:43:26 51°14.944 2°54.682 349 12.4 340 6.9
2005-05-24 06:43:31 51°14.96 2°54.672 348.4 12.4 339 7
2005-05-24 06:43:36 51°14.977 2°54.663 348.2 12.4 339 6.9
2005-05-24 06:43:41 51°14.994 2°54.654 348.6 12.4 339 6.7
2005-05-24 06:43:46 51°15.009 2°54.647 349.4 12.4 339 6.7
2005-05-24 06:43:50 51°15.023 2°54.639 350.2 12.1 343 6.5
2005-05-24 06:43:55 51°15.039 2°54.631 350.8 12 342 6.4
2005-05-24 06:44:01 51°15.058 2°54.622 351 12 342 6.3
2005-05-24 06:44:06 51°15.074 2°54.614 351.3 12 342 6.3
2005-05-24 06:44:10 51°15.086 2°54.607 351.4 11.7 341 6.2
2005-05-24 06:44:16 51°15.103 2°54.598 351 11.7 341 6.2
2005-05-24 06:44:21 51°15.119 2°54.588 350.8 11.6 341 6.2
2005-05-24 06:44:26 51°15.133 2°54.58 350.4 11.6 340 6.3
2005-05-24 06:44:31 51°15.149 2°54.57 349.9 11.6 340 6.3
2005-05-24 06:44:36 51°15.163 2°54.562 349.8 11.6 340 6.3
2005-05-24 06:44:41 51°15.18 2°54.552 349.8 11.8 340 6.4
2005-05-24 06:44:46 51°15.194 2°54.545 350.1 11.8 340 6.4
2005-05-24 06:44:51 51°15.211 2°54.536 350.4 11.8 341 6.5
2005-05-24 06:44:56 51°15.225 2°54.528 350.7 11.8 341 6.6
2005-05-24 06:45:01 51°15.242 2°54.519 351.2 11.9 342 6.7
2005-05-24 06:45:06 51°15.256 2°54.512 352.2 12 342 6.7
2005-05-24 06:45:10 51°15.27 2°54.506 352.8 12 342 6.8
2005-05-24 06:45:16 51°15.288 2°54.498 353.4 12 342 6.8
2005-05-24 06:45:21 51°15.306 2°54.49 354 12 344 6.9
2005-05-24 06:45:26 51°15.321 2°54.483 354.2 12 344 6.9
2005-05-24 06:45:31 51°15.337 2°54.476 354.2 12 344 6.9
2005-05-24 06:45:35 51°15.351 2°54.468 354.1 12 344 7
2005-05-24 06:45:41 51°15.37 2°54.458 353.3 12.2 342 7.1
2005-05-24 06:45:46 51°15.385 2°54.45 352.5 12.2 342 7
2005-05-24 06:45:51 51°15.401 2°54.441 351.8 12.2 342 7.1
2005-05-24 06:45:55 51°15.415 2°54.433 351.5 12.2 342 7.1
2005-05-24 06:46:01 51°15.435 2°54.422 351.1 12.2 342 5.4
2005-05-24 06:46:06 51°15.45 2°54.414 350.6 12.5 341 7.3
2005-05-24 06:46:10 51°15.465 2°54.406 351.2 12.5 341 7.4
2005-05-24 06:46:15 51°15.481 2°54.397 351.5 12.5 342 5.5
2005-05-24 06:46:21 51°15.501 2°54.387 352.2 12.6 342 7.5
2005-05-24 06:46:26 51°15.516 2°54.38 352.7 12.6 342 7.5
2005-05-24 06:46:31 51°15.534 2°54.372 353.6 12.7 345 7.5
2005-05-24 06:46:36 51°15.55 2°54.366 355.5 12.7 346 7.6
2005-05-24 06:46:40 51°15.565 2°54.36 356.2 12.7 346 7.7
2005-05-24 06:46:46 51°15.584 2°54.354 356.7 12.7 347 7.8
2005-05-24 06:46:51 51°15.603 2°54.347 357.2 12.7 348 7.8
2005-05-24 06:46:55 51°15.617 2°54.343 358 12.8 349 7.8
2005-05-24 06:47:01 51°15.636 2°54.339 359.3 12.8 351 8
2005-05-24 06:47:06 51°15.654 2°54.334 0.2 12.8 351 8
2005-05-24 06:47:11 51°15.673 2°54.329 0.7 12.9 351 8.1
2005-05-24 06:47:15 51°15.688 2°54.326 1.4 12.9 351 8.2
2005-05-24 06:47:21 51°15.707 2°54.321 1.6 12.9 351 8.3
2005-05-24 06:47:26 51°15.725 2°54.316 1.4 13 351 8.3
2005-05-24 06:47:30 51°15.741 2°54.311 0.5 13.1 348 8.3
2005-05-24 06:47:36 51°15.762 2°54.303 359 13.1 348 8.4
2005-05-24 06:47:41 51°15.778 2°54.296 357.3 13.1 348 8.4
2005-05-24 06:47:46 51°15.795 2°54.288 356.2 13.2 345 8.5
2005-05-24 06:47:50 51°15.811 2°54.281 354.8 13.1 344 8.6
2005-05-24 06:47:55 51°15.829 2°54.273 354 13.2 343 8.6
2005-05-24 06:48:01 51°15.85 2°54.263 353.6 13.2 343 8.7
2005-05-24 06:48:06 51°15.866 2°54.256 353.5 13.2 343 8.7
2005-05-24 06:48:11 51°15.885 2°54.247 353.6 13.2 343 8.7
2005-05-24 06:48:16 51°15.901 2°54.241 354.5 13.2 343 8.8
2005-05-24 06:48:21 51°15.921 2°54.233 355.2 13.2 346 8.9
2005-05-24 06:48:26 51°15.937 2°54.228 356.1 13.2 347 8.9
2005-05-24 06:48:30 51°15.952 2°54.221 356.8 13.2 347 8.9
2005-05-24 06:48:36 51°15.97 2°54.215 357 12.6 347 8.9
2005-05-24 06:48:41 51°15.988 2°54.207 357.1 12.2 347 8.9
2005-05-24 06:48:46 51°16.003 2°54.201 356.6 12.2 345 8.9
2005-05-24 06:48:51 51°16.02 2°54.193 355.6 12.2 345 9
2005-05-24 06:48:56 51°16.032 2°54.186 354.1 12.2 345 9.1
2005-05-24 06:49:01 51°16.047 2°54.178 352.5 10.9 342 9.2
2005-05-24 06:49:06 51°16.059 2°54.173 351.8 9.9 342 9.3
2005-05-24 06:49:11 51°16.072 2°54.166 352.3 9.5 343 9.4
2005-05-24 06:49:16 51°16.083 2°54.162 353.8 9.5 343 9.4
2005-05-24 06:49:21 51°16.095 2°54.159 356.2 9 346 9.4
2005-05-24 06:49:26 51°16.106 2°54.16 0.5 8.2 356 9.4
2005-05-24 06:49:31 51°16.117 2°54.163 8.5 7.6 8 9.3
2005-05-24 06:49:36 51°16.126 2°54.168 15.2 7.6 8 9.4
2005-05-24 06:49:41 51°16.133 2°54.175 23.4 6.7 25 9.4
2005-05-24 06:49:46 51°16.139 2°54.181 31.8 6.4 28 9.6
2005-05-24 06:49:51 51°16.144 2°54.19 39.9 6.4 28 9.4
2005-05-24 06:49:56 51°16.149 2°54.199 47.1 6.4 28 9.5
2005-05-24 06:50:01 51°16.152 2°54.207 54.4 5 52 9.5
2005-05-24 06:50:06 51°16.156 2°54.215 58.2 4.8 53 9.6
2005-05-24 06:50:11 51°16.16 2°54.223 59.6 4.8 53 9.6
2005-05-24 06:50:15 51°16.164 2°54.231 57.5 4.8 53 9.7
2005-05-24 06:50:21 51°16.169 2°54.239 54.7 4.8 46 9.6
2005-05-24 06:50:26 51°16.173 2°54.246 51.5 4.8 44 9.6
2005-05-24 06:50:31 51°16.179 2°54.254 49.9 4.9 42 9.6
2005-05-24 06:50:36 51°16.183 2°54.26 48.7 4.9 42 9.5
2005-05-24 06:50:41 51°16.188 2°54.267 48.2 4.6 42 9.5
2005-05-24 06:50:46 51°16.192 2°54.272 48.2 4.6 42 9.5
2005-05-24 06:50:51 51°16.197 2°54.278 47.1 4.6 42 9.6
2005-05-24 06:50:55 51°16.201 2°54.282 45.7 4.6 42 9.5
2005-05-24 06:51:01 51°16.207 2°54.287 43.6 3.8 33 9.6
2005-05-24 06:51:06 51°16.211 2°54.291 41.8 3.8 33 9.5
2005-05-24 06:51:11 51°16.216 2°54.295 39.8 3.8 33 9.5
2005-05-24 06:51:15 51°16.219 2°54.297 37.1 3.8 33 9.6
2005-05-24 06:51:21 51°16.224 2°54.3 35.5 3.2 23 9.5
2005-05-24 06:51:26 51°16.228 2°54.301 32.5 3.1 20 9.5
2005-05-24 06:51:31 51°16.231 2°54.303 30.5 2.4 13 9.5
2005-05-24 06:51:36 51°16.233 2°54.303 28.4 2.4 13 9.5
2005-05-24 06:51:41 51°16.236 2°54.303 26.9 1.9 9 9.7
2005-05-24 06:51:46 51°16.238 2°54.303 25.3 1.9 9 9.6
2005-05-24 06:51:51 51°16.239 2°54.303 23.2 1.9 9 9.6
2005-05-24 06:51:56 51°16.24 2°54.302 21.2 1 344 9.6
2005-05-24 06:52:01 51°16.241 2°54.301 19.1 0.8 319 9.6
2005-05-24 06:52:06 51°16.242 2°54.3 16.6 0.6 319 9.6
2005-05-24 06:52:10 51°16.242 2°54.299 14.9 0.6 315 9.5
2005-05-24 06:52:16 51°16.243 2°54.298 12.7 0.7 319 9.6
2005-05-24 06:52:21 51°16.244 2°54.297 10.1 0.7 316 9.6
2005-05-24 06:52:26 51°16.245 2°54.296 7.9 0.7 313 9.6
2005-05-24 06:52:31 51°16.246 2°54.294 6.4 0.7 316 9.5
2005-05-24 06:52:36 51°16.247 2°54.293 4.3 0.8 312 9.6
2005-05-24 06:52:41 51°16.247 2°54.292 2.9 0.8 312 9.6
2005-05-24 06:52:46 51°16.248 2°54.291 1.1 0.8 312 9.6
2005-05-24 06:52:51 51°16.249 2°54.289 -999 0.8 309 9.6
2005-05-24 06:52:55 51°16.249 2°54.288 358.7 0.8 309 9.5
2005-05-24 06:53:01 51°16.25 2°54.287 357.3 0.9 304 9.6
2005-05-24 06:53:06 51°16.251 2°54.285 356 0.8 307 9.6
2005-05-24 06:53:11 51°16.251 2°54.283 354.6 0.8 301 9.7
2005-05-24 06:53:16 51°16.252 2°54.282 353.8 0.8 302 9.6
2005-05-24 06:53:21 51°16.252 2°54.28 352.8 0.9 297 9.6
2005-05-24 06:53:26 51°16.253 2°54.278 351.5 0.8 300 9.7
2005-05-24 06:53:31 51°16.253 2°54.276 350.5 0.8 300 9.6
2005-05-24 06:53:36 51°16.254 2°54.275 349 0.8 300 9.6
2005-05-24 06:53:41 51°16.254 2°54.273 347.6 0.9 292 9.6
2005-05-24 06:53:46 51°16.254 2°54.271 346.3 0.9 290 9.6
2005-05-24 06:53:51 51°16.254 2°54.269 344.8 0.9 290 9.7
2005-05-24 06:53:56 51°16.254 2°54.267 343.6 0.9 290 9.7
2005-05-24 06:54:01 51°16.254 2°54.264 342 0.9 286 9.7
2005-05-24 06:54:06 51°16.255 2°54.263 341 0.9 286 9.6
2005-05-24 06:54:11 51°16.255 2°54.26 339.8 1 288 9.7
2005-05-24 06:54:16 51°16.256 2°54.258 338.5 1 290 9.6
2005-05-24 06:54:21 51°16.256 2°54.256 337.4 1 289 9.8
2005-05-24 06:54:26 51°16.256 2°54.254 336 1 285 9.6
2005-05-24 06:54:31 51°16.257 2°54.252 335.3 1 285 9.6
2005-05-24 06:54:36 51°16.257 2°54.25 334.5 1 285 9.6
2005-05-24 06:54:41 51°16.257 2°54.248 333.2 1.2 292 9.7
2005-05-24 06:54:46 51°16.257 2°54.246 332.3 0.9 284 9.7
2005-05-24 06:54:50 51°16.257 2°54.244 331 0.9 284 9.7
2005-05-24 06:54:56 51°16.258 2°54.242 330.1 1 274 9.6
2005-05-24 06:55:01 51°16.259 2°54.24 329.3 0.9 281 9.6
2005-05-24 06:55:06 51°16.259 2°54.238 328.2 1 281 9.7
2005-05-24 06:55:11 51°16.259 2°54.236 327.7 0.9 273 9.6
2005-05-24 06:55:16 51°16.258 2°54.234 326.6 0.9 273 9.7
2005-05-24 06:55:21 51°16.259 2°54.231 325.7 0.9 276 9.8
2005-05-24 06:55:26 51°16.259 2°54.23 324.6 1 272 9.6
2005-05-24 06:55:31 51°16.258 2°54.227 323.6 1 272 9.7
2005-05-24 06:55:36 51°16.259 2°54.225 322.6 1 272 9.6
2005-05-24 06:55:41 51°16.259 2°54.223 321.5 1 270 9.8
2005-05-24 06:55:46 51°16.259 2°54.221 320.6 1 274 9.6
2005-05-24 06:55:51 51°16.259 2°54.219 319.8 1 274 9.7
2005-05-24 06:55:56 51°16.259 2°54.217 318.7 1 274 9.6
2005-05-24 06:56:01 51°16.259 2°54.215 318 1 274 9.6
2005-05-24 06:56:06 51°16.259 2°54.213 317.1 1 273 9.8
2005-05-24 06:56:10 51°16.259 2°54.211 316.4 1 271 9.6
2005-05-24 06:56:16 51°16.26 2°54.208 315.8 1 271 9.6
2005-05-24 06:56:21 51°16.259 2°54.206 315.2 1 269 9.7
2005-05-24 06:56:26 51°16.259 2°54.204 314.9 0.9 266 9.8
2005-05-24 06:56:31 51°16.26 2°54.202 314.1 0.9 266 9.7
2005-05-24 06:56:36 51°16.26 2°54.2 313.6 0.9 266 9.7
2005-05-24 06:56:41 51°16.259 2°54.198 313.2 0.9 273 9.7
2005-05-24 06:56:46 51°16.259 2°54.196 312.6 0.9 272 9.7
2005-05-24 06:56:51 51°16.26 2°54.194 312 0.9 272 9.7
2005-05-24 06:56:56 51°16.26 2°54.192 311.3 0.9 272 9.7
2005-05-24 06:57:01 51°16.259 2°54.191 310.9 0.9 270 9.6
2005-05-24 06:57:06 51°16.259 2°54.189 310.6 0.9 267 9.6
2005-05-24 06:57:11 51°16.259 2°54.187 310.2 0.9 267 9.6
2005-05-24 06:57:16 51°16.259 2°54.185 310.1 0.9 267 9.6
2005-05-24 06:57:21 51°16.259 2°54.183 309.9 0.9 265 9.6
2005-05-24 06:57:26 51°16.259 2°54.181 309.8 0.9 266 9.6
2005-05-24 06:57:31 51°16.26 2°54.179 309.6 0.9 267 9.7
2005-05-24 06:57:36 51°16.259 2°54.177 309.1 0.8 268 9.6
2005-05-24 06:57:41 51°16.259 2°54.175 309.3 0.8 265 9.6
2005-05-24 06:57:46 51°16.259 2°54.173 309.6 0.8 266 9.6
2005-05-24 06:57:51 51°16.259 2°54.171 309.9 0.8 266 9.6
2005-05-24 06:57:55 51°16.259 2°54.17 310.1 0.8 266 9.6
2005-05-24 06:58:01 51°16.259 2°54.167 310.3 0.9 265 9.6
2005-05-24 06:58:06 51°16.259 2°54.166 310.6 0.8 265 9.7
2005-05-24 06:58:11 51°16.259 2°54.164 310.7 0.9 267 9.7
2005-05-24 06:58:16 51°16.259 2°54.162 311 0.8 269 9.7
2005-05-24 06:58:21 51°16.259 2°54.16 311.1 0.9 267 9.7
2005-05-24 06:58:26 51°16.259 2°54.158 311.2 0.9 267 9.7
2005-05-24 06:58:31 51°16.258 2°54.156 311.3 0.9 265 9.7
2005-05-24 06:58:36 51°16.258 2°54.155 311.5 0.9 265 9.7
2005-05-24 06:58:41 51°16.259 2°54.153 311.7 0.9 270 9.7
2005-05-24 06:58:46 51°16.259 2°54.15 312.1 1.1 281 9.6
2005-05-24 06:58:51 51°16.26 2°54.146 312.3 1.7 285 9.7
2005-05-24 06:58:55 51°16.261 2°54.141 312.9 2.3 290 9.6
2005-05-24 06:59:01 51°16.264 2°54.132 313.4 2.8 291 9.6
2005-05-24 06:59:06 51°16.267 2°54.123 313.5 4.5 298 9.7
2005-05-24 06:59:11 51°16.272 2°54.11 313.2 5.4 298 9.6
2005-05-24 06:59:15 51°16.276 2°54.099 312.3 6.8 299 9.6
2005-05-24 06:59:21 51°16.283 2°54.079 311.1 6.8 299 9.7
2005-05-24 06:59:26 51°16.289 2°54.063 310 8.8 299 9.6
2005-05-24 06:59:31 51°16.296 2°54.042 309.6 9.9 299 9.6
2005-05-24 06:59:36 51°16.304 2°54.02 309.5 10.6 299 9.6
2005-05-24 06:59:41 51°16.312 2°53.998 309.5 11.5 300 9.5
2005-05-24 06:59:46 51°16.32 2°53.977 309.9 11.9 300 9.6
2005-05-24 06:59:51 51°16.33 2°53.951 310 12.3 300 9.6
2005-05-24 06:59:56 51°16.338 2°53.929 310.4 12.6 301 9.6
2005-05-24 07:00:01 51°16.349 2°53.902 310.6 12.9 301 9.7
2005-05-24 07:00:06 51°16.357 2°53.88 310.8 12.9 301 9.7
2005-05-24 07:00:10 51°16.365 2°53.859 311 12.9 301 9.8
2005-05-24 07:00:16 51°16.377 2°53.829 311.2 12.9 301 9.7
2005-05-24 07:00:21 51°16.386 2°53.804 311.3 13.4 302 9.7
2005-05-24 07:00:26 51°16.397 2°53.776 311.5 13.4 302 9.7
2005-05-24 07:00:30 51°16.404 2°53.758 311.8 13.6 302 9.9
2005-05-24 07:00:36 51°16.417 2°53.727 312 13.6 303 9.7
2005-05-24 07:00:41 51°16.427 2°53.702 312.3 13.6 303 9.7
2005-05-24 07:00:46 51°16.439 2°53.674 312.5 13.6 303 9.8
2005-05-24 07:00:51 51°16.449 2°53.649 312.8 13.8 304 9.8
2005-05-24 07:00:56 51°16.461 2°53.625 312.9 13.7 304 9.9
2005-05-24 07:01:01 51°16.471 2°53.604 315.2 13.6 308 9.9
2005-05-24 07:01:06 51°16.482 2°53.58 317.3 13.6 308 9.9
2005-05-24 07:01:11 51°16.495 2°53.554 318.6 13.6 308 9.9
2005-05-24 07:01:16 51°16.506 2°53.531 318.7 13.6 308 10
2005-05-24 07:01:21 51°16.517 2°53.51 318.8 13.5 308 10
2005-05-24 07:01:26 51°16.529 2°53.485 318.3 13.5 308 9.9
2005-05-24 07:01:30 51°16.539 2°53.464 318 13.5 308 10
2005-05-24 07:01:36 51°16.554 2°53.44 319.3 13.6 311 10
2005-05-24 07:01:41 51°16.568 2°53.416 321.5 13.5 313 9.9
2005-05-24 07:01:46 51°16.58 2°53.397 323.5 13.6 315 9.9
2005-05-24 07:01:51 51°16.594 2°53.377 325 13.4 316 9.9
2005-05-24 07:01:56 51°16.608 2°53.357 326.3 13.5 317 9.9
2005-05-24 07:02:01 51°16.623 2°53.335 326.9 13.5 318 9.9
2005-05-24 07:02:06 51°16.635 2°53.317 327.3 13.5 318 9.8
2005-05-24 07:02:11 51°16.651 2°53.295 327.3 13.5 318 9.7
2005-05-24 07:02:15 51°16.662 2°53.279 327.3 13.4 318 9.7
2005-05-24 07:02:21 51°16.679 2°53.256 327.3 13.4 319 9.6
2005-05-24 07:02:26 51°16.691 2°53.239 327.5 13.3 319 9.5
2005-05-24 07:02:30 51°16.704 2°53.221 327.6 13.3 319 9.4
2005-05-24 07:02:35 51°16.719 2°53.202 327.5 13.3 319 9.4
2005-05-24 07:02:41 51°16.734 2°53.181 327.3 13.3 318 9.4
2005-05-24 07:02:46 51°16.747 2°53.161 326.7 13.2 318 9.3
2005-05-24 07:02:51 51°16.763 2°53.14 326.6 13.3 319 9.3
2005-05-24 07:02:55 51°16.774 2°53.124 326.6 13.3 319 9.2
2005-05-24 07:03:01 51°16.788 2°53.103 326.6 13.2 318 9
2005-05-24 07:03:06 51°16.802 2°53.084 326.4 13.2 318 8.9
2005-05-24 07:03:10 51°16.814 2°53.066 326 13.2 318 8.5
2005-05-24 07:03:16 51°16.829 2°53.045 326.1 13.1 318 8
2005-05-24 07:03:21 51°16.844 2°53.025 326.3 13 319 7.4
2005-05-24 07:03:26 51°16.855 2°53.008 326.4 12.6 318 7
2005-05-24 07:03:30 51°16.866 2°52.991 326.3 12 316 6.8
2005-05-24 07:03:35 51°16.878 2°52.973 325.6 12 316 6.8
2005-05-24 07:03:41 51°16.892 2°52.951 325 12 316 6.7
2005-05-24 07:03:46 51°16.902 2°52.933 324 12 315 6.7
2005-05-24 07:03:51 51°16.915 2°52.912 323.1 12 315 6.8
2005-05-24 07:03:55 51°16.924 2°52.896 322.5 12 313 7
2005-05-24 07:04:01 51°16.938 2°52.872 321.9 12.2 313 7.2
2005-05-24 07:04:06 51°16.949 2°52.854 321.4 12.2 313 7.4
2005-05-24 07:04:11 51°16.963 2°52.832 321 12.5 314 7.5
2005-05-24 07:04:16 51°16.974 2°52.815 322.2 12.7 316 7.6
2005-05-24 07:04:21 51°16.989 2°52.796 324.8 12.6 319 7.6
2005-05-24 07:04:26 51°17.002 2°52.781 328 12.6 321 7.7
2005-05-24 07:04:31 51°17.019 2°52.764 330.4 12.6 321 7.8
2005-05-24 07:04:36 51°17.032 2°52.75 333.5 12.8 327 8
2005-05-24 07:04:41 51°17.049 2°52.734 335.7 12.7 329 8.2
2005-05-24 07:04:46 51°17.062 2°52.72 337.3 12.8 328 8.3
2005-05-24 07:04:51 51°17.079 2°52.704 337.2 13.1 328 8.3
2005-05-24 07:04:56 51°17.093 2°52.688 336.5 13 326 8.1
2005-05-24 07:05:01 51°17.108 2°52.669 335.1 13 324 7.9
2005-05-24 07:05:06 51°17.121 2°52.654 332.6 12.9 322 5.7
2005-05-24 07:05:11 51°17.136 2°52.634 331.4 12.8 320 5.6
2005-05-24 07:05:16 51°17.148 2°52.618 329.6 12.7 319 7.7